Weather at Sargent Municipal Airport

Public forecast

Using degrees Fahrenheit for public forecast. Weather courtesy of forecast.io.

Closest aviation weather report (METAR) to Sargent Municipal Airport

Closest report is Evelyn Sharp Field, 17.4 nm (32.3 km) E. Retrieved 2021/06/15 05:53 UTC (26 minutes ago):

KODX 150553Z AUTO 08004KT 10SM CLR 23/16 A3009 RMK AO2 SLP176 T02330156 10344 20233 403670189 51012

Closest aviation forecast (TAF) to Sargent Municipal Airport

Closest forecast is Kearney Regional Airport, 56.7 nm (105.0 km) SSE. Retrieved 2021/06/15 06:42 UTC (0 seconds ago):

TAF KEAR 150539Z 1506/1606 08005KT P6SM FEW250 FM151400 11010KT P6SM FEW250